createdAt,value
2023-02-13T00:01:15.200Z,11.20
2023-02-13T00:03:43.604Z,11.45
2023-02-13T00:06:13.177Z,10.77
2023-02-13T00:08:41.405Z,9.98
2023-02-13T00:11:09.834Z,10.90
2023-02-13T00:13:37.931Z,10.35
2023-02-13T00:16:06.902Z,10.82
2023-02-13T00:18:36.661Z,11.30
2023-02-13T00:21:07.147Z,9.30
2023-02-13T00:23:37.914Z,11.18
2023-02-13T00:26:08.243Z,10.60
2023-02-13T00:28:37.165Z,9.65
2023-02-13T00:31:07.085Z,11.00
2023-02-13T00:33:35.525Z,9.55
2023-02-13T00:36:05.643Z,9.57
2023-02-13T00:38:33.830Z,9.25
2023-02-13T00:41:04.333Z,8.68
2023-02-13T00:43:33.145Z,10.27
2023-02-13T00:46:01.837Z,10.55
2023-02-13T00:48:31.772Z,9.93
2023-02-13T00:51:00.663Z,9.27
2023-02-13T00:53:29.178Z,10.73
2023-02-13T00:55:57.540Z,9.73
2023-02-13T00:58:27.553Z,10.38
2023-02-13T01:00:56.525Z,8.88
2023-02-13T01:03:25.281Z,10.13
2023-02-13T01:05:53.881Z,11.27
2023-02-13T01:08:22.362Z,8.63
2023-02-13T01:10:51.118Z,9.95
2023-02-13T01:13:19.888Z,9.63
2023-02-13T01:15:50.244Z,9.85
2023-02-13T01:18:20.538Z,10.48
2023-02-13T01:20:58.476Z,11.45
2023-02-13T01:23:26.874Z,11.40
2023-02-13T01:25:56.690Z,12.18
2023-02-13T01:28:24.833Z,11.18
2023-02-13T01:30:59.445Z,10.13
2023-02-13T01:33:29.848Z,10.55
2023-02-13T01:35:58.255Z,11.80
2023-02-13T01:38:26.407Z,9.95
2023-02-13T01:40:56.029Z,10.88
2023-02-13T01:43:43.823Z,12.23
2023-02-13T01:46:16.863Z,11.32
2023-02-13T01:48:45.216Z,10.73
2023-02-13T01:51:18.534Z,11.10
2023-02-13T01:56:23.172Z,12.50
2023-02-13T01:58:55.519Z,11.40
2023-02-13T02:01:26.622Z,11.87
2023-02-13T02:03:59.741Z,10.75
2023-02-13T02:06:35.766Z,12.23
2023-02-13T02:09:10.406Z,13.75
2023-02-13T02:11:45.897Z,10.82
2023-02-13T02:14:13.985Z,10.02
2023-02-13T02:16:43.771Z,11.68
2023-02-13T02:19:20.538Z,13.13
2023-02-13T02:22:22.421Z,12.05
2023-02-13T02:25:33.179Z,14.27
2023-02-13T02:28:33.213Z,12.75
2023-02-13T02:31:54.030Z,13.73
2023-02-13T02:34:32.838Z,13.48
2023-02-13T02:37:14.838Z,14.07
2023-02-13T02:39:57.043Z,15.18
2023-02-13T02:42:34.502Z,13.48
2023-02-13T02:45:10.767Z,13.32
2023-02-13T02:48:07.487Z,12.65
2023-02-13T02:50:43.066Z,14.00
2023-02-13T02:53:26.788Z,13.93
2023-02-13T02:56:01.075Z,13.95
2023-02-13T02:58:52.349Z,14.77
2023-02-13T03:01:42.928Z,12.98
2023-02-13T03:04:36.971Z,14.23
2023-02-13T03:07:09.735Z,13.68
2023-02-13T03:09:57.696Z,15.02
2023-02-13T03:12:49.148Z,14.05
2023-02-13T03:15:17.366Z,14.65
2023-02-13T03:18:03.324Z,14.30
2023-02-13T03:21:02.007Z,15.00
2023-02-13T03:23:40.052Z,14.00
2023-02-13T03:26:46.220Z,16.63
2023-02-13T03:29:42.761Z,13.43
2023-02-13T03:32:22.042Z,15.25
2023-02-13T03:35:16.389Z,14.48
2023-02-13T03:37:57.267Z,14.85
2023-02-13T03:40:31.246Z,15.15
2023-02-13T03:43:10.039Z,16.02
2023-02-13T03:45:53.953Z,16.52
2023-02-13T03:48:43.760Z,15.52
2023-02-13T03:51:15.510Z,15.43
2023-02-13T03:53:47.805Z,16.80
2023-02-13T03:56:38.093Z,14.88
2023-02-13T03:59:14.749Z,13.65
2023-02-13T04:01:49.100Z,13.55
2023-02-13T04:04:25.021Z,15.77
2023-02-13T04:06:57.394Z,14.18
2023-02-13T04:09:26.949Z,15.63
2023-02-13T04:12:03.321Z,15.27
2023-02-13T04:14:37.753Z,15.40
2023-02-13T04:17:08.393Z,14.90
2023-02-13T04:19:36.802Z,14.50
2023-02-13T04:22:05.367Z,15.45
2023-02-13T04:24:33.511Z,14.15
2023-02-13T04:27:03.338Z,12.93
2023-02-13T04:29:31.502Z,15.27
2023-02-13T04:31:59.825Z,13.75
2023-02-13T04:34:27.900Z,14.98
2023-02-13T04:36:56.070Z,13.95
2023-02-13T04:39:24.222Z,14.63
2023-02-13T04:41:52.491Z,16.13
2023-02-13T04:44:21.992Z,13.20
2023-02-13T04:46:50.132Z,14.32
2023-02-13T04:49:18.558Z,14.18
2023-02-13T04:51:48.236Z,14.43
2023-02-13T04:54:16.513Z,13.23
2023-02-13T04:56:44.754Z,12.93
2023-02-13T04:59:12.895Z,15.85
2023-02-13T05:01:42.659Z,13.25
2023-02-13T05:04:11.466Z,13.45
2023-02-13T05:06:39.546Z,13.30
2023-02-13T05:09:07.589Z,13.38
2023-02-13T05:11:35.677Z,13.00
2023-02-13T05:14:03.744Z,14.55
2023-02-13T05:16:31.972Z,14.48
2023-02-13T05:19:01.488Z,14.07
2023-02-13T05:21:47.074Z,15.15
2023-02-13T05:24:15.234Z,14.45
2023-02-13T05:26:43.335Z,12.23
2023-02-13T05:29:22.579Z,13.43
2023-02-13T05:31:52.350Z,12.20
2023-02-13T05:34:23.339Z,13.00
2023-02-13T05:36:51.849Z,13.27
2023-02-13T05:39:20.191Z,12.57
2023-02-13T05:41:49.574Z,15.10
2023-02-13T05:44:18.161Z,12.45
2023-02-13T05:46:46.523Z,13.65
2023-02-13T05:49:15.806Z,12.55
2023-02-13T05:51:46.551Z,12.98
2023-02-13T05:54:14.693Z,13.38
2023-02-13T05:56:42.848Z,14.10
2023-02-13T05:59:11.014Z,11.85
2023-02-13T06:01:39.288Z,12.68
2023-02-13T06:04:07.662Z,13.38
2023-02-13T06:06:35.798Z,13.85
2023-02-13T06:09:05.939Z,13.77
2023-02-13T06:11:34.114Z,13.40
2023-02-13T06:14:02.239Z,15.07
2023-02-13T06:16:31.163Z,13.43
2023-02-13T06:18:59.480Z,15.10
2023-02-13T06:21:28.486Z,14.00
2023-02-13T06:23:56.773Z,15.45
2023-02-13T06:26:26.536Z,15.88
2023-02-13T06:28:54.871Z,15.57
2023-02-13T06:31:23.404Z,15.35
2023-02-13T06:33:51.621Z,16.15
2023-02-13T06:36:19.738Z,16.42
2023-02-13T06:38:48.525Z,14.27
2023-02-13T06:41:16.649Z,14.73
2023-02-13T06:43:49.545Z,15.88
2023-02-13T06:46:17.693Z,16.45
2023-02-13T06:48:45.857Z,15.80
2023-02-13T06:51:13.988Z,16.67
2023-02-13T06:53:42.089Z,15.65
2023-02-13T06:56:11.284Z,17.50
2023-02-13T06:58:40.161Z,15.93
2023-02-13T07:01:09.775Z,15.98
2023-02-13T07:03:38.088Z,16.02
2023-02-13T07:06:06.483Z,17.55
2023-02-13T07:08:34.642Z,15.27
2023-02-13T07:11:02.968Z,15.23
2023-02-13T07:13:31.307Z,16.25
2023-02-13T07:16:01.936Z,15.60
2023-02-13T07:18:31.530Z,15.18
2023-02-13T07:21:00.084Z,15.73
2023-02-13T07:23:28.842Z,17.25
2023-02-13T07:26:00.064Z,16.60
2023-02-13T07:28:28.487Z,17.30
2023-02-13T07:30:57.105Z,15.63
2023-02-13T07:33:25.924Z,15.50
2023-02-13T07:35:55.549Z,13.82
2023-02-13T07:38:23.663Z,15.35
2023-02-13T07:40:51.772Z,15.65
2023-02-13T07:43:20.156Z,16.52
2023-02-13T07:45:48.261Z,13.20
2023-02-13T07:48:16.337Z,14.13
2023-02-13T07:50:44.429Z,14.63
2023-02-13T07:53:14.151Z,14.02
2023-02-13T07:55:42.205Z,15.05
2023-02-13T07:58:10.406Z,13.73
2023-02-13T08:00:38.767Z,13.07
2023-02-13T08:03:07.389Z,13.93
2023-02-13T08:05:35.843Z,13.70
2023-02-13T08:08:03.938Z,14.02
2023-02-13T08:10:50.753Z,13.27
2023-02-13T08:13:19.533Z,14.50
2023-02-13T08:15:48.018Z,14.23
2023-02-13T08:18:17.543Z,15.13
2023-02-13T08:20:47.035Z,13.32
2023-02-13T08:23:15.308Z,14.45
2023-02-13T08:25:44.806Z,14.70
2023-02-13T08:28:13.096Z,12.38
2023-02-13T08:30:41.245Z,13.80
2023-02-13T08:33:09.540Z,14.52
2023-02-13T08:35:37.561Z,13.20
2023-02-13T08:38:06.541Z,15.90
2023-02-13T08:40:34.891Z,11.57
2023-02-13T08:43:05.996Z,12.57
2023-02-13T08:45:35.202Z,11.05
2023-02-13T08:48:04.949Z,12.45
2023-02-13T08:50:35.099Z,13.07
2023-02-13T08:53:04.361Z,15.50
2023-02-13T08:55:33.288Z,14.48
2023-02-13T08:58:02.688Z,13.18
2023-02-13T09:00:32.501Z,11.90
2023-02-13T09:03:02.200Z,12.02
2023-02-13T09:05:32.468Z,12.82
2023-02-13T09:08:02.786Z,12.95
2023-02-13T09:10:31.205Z,12.63
2023-02-13T09:12:59.284Z,12.45
2023-02-13T09:15:27.793Z,11.40
2023-02-13T09:17:57.791Z,12.23
2023-02-13T09:20:26.198Z,11.15
2023-02-13T09:22:56.676Z,12.70
2023-02-13T09:25:24.787Z,12.20
2023-02-13T09:27:52.954Z,12.05
2023-02-13T09:30:24.318Z,12.32
2023-02-13T09:32:53.973Z,11.57
2023-02-13T09:35:24.024Z,11.18
2023-02-13T09:37:52.165Z,11.30
2023-02-13T09:40:25.004Z,11.25
2023-02-13T09:42:54.812Z,11.32
2023-02-13T09:45:23.553Z,10.93
2023-02-13T09:47:51.848Z,11.32
2023-02-13T09:50:25.282Z,11.63
2023-02-13T09:52:56.440Z,10.55
2023-02-13T09:55:30.047Z,11.80
2023-02-13T09:58:06.070Z,11.77
2023-02-13T10:00:38.784Z,10.48
2023-02-13T10:03:29.478Z,9.05
2023-02-13T10:06:06.044Z,11.32
2023-02-13T10:08:55.269Z,10.88
2023-02-13T10:11:46.702Z,11.57
2023-02-13T10:14:18.822Z,11.57
2023-02-13T10:16:50.834Z,10.73
2023-02-13T10:19:36.239Z,12.02
2023-02-13T10:22:13.248Z,10.38
2023-02-13T10:24:45.488Z,10.45
2023-02-13T10:27:22.632Z,10.88
2023-02-13T10:30:12.894Z,10.73
2023-02-13T10:32:47.695Z,10.98
2023-02-13T10:35:28.590Z,9.93
2023-02-13T10:38:00.733Z,10.23
2023-02-13T10:40:33.793Z,10.18
2023-02-13T10:43:09.082Z,10.52
2023-02-13T10:45:58.462Z,10.65
2023-02-13T10:48:42.353Z,10.15
2023-02-13T10:51:17.633Z,11.65
2023-02-13T10:54:01.215Z,10.90
2023-02-13T10:56:34.724Z,10.57
2023-02-13T10:59:26.076Z,10.10
2023-02-13T11:01:59.075Z,10.70
2023-02-13T11:04:27.306Z,9.90
2023-02-13T11:06:58.836Z,9.80
2023-02-13T11:09:28.998Z,9.35
2023-02-13T11:11:57.230Z,10.00
2023-02-13T11:14:26.803Z,10.52
2023-02-13T11:16:59.211Z,10.68
2023-02-13T11:19:33.680Z,10.43
2023-02-13T11:22:05.676Z,10.50
2023-02-13T11:24:36.675Z,10.48
2023-02-13T11:27:09.381Z,9.18
2023-02-13T11:29:39.532Z,9.57
2023-02-13T11:32:23.087Z,9.82
2023-02-13T11:34:52.246Z,8.85
2023-02-13T11:37:24.290Z,9.20
2023-02-13T11:39:55.654Z,10.60
2023-02-13T11:42:30.392Z,8.63
2023-02-13T11:45:02.739Z,8.75
2023-02-13T11:47:40.345Z,8.38
2023-02-13T11:50:22.335Z,9.48
2023-02-13T11:52:59.764Z,10.40
2023-02-13T11:55:34.624Z,9.45
2023-02-13T11:58:05.251Z,8.63
2023-02-13T12:00:40.074Z,9.32
2023-02-13T12:03:28.033Z,9.18
2023-02-13T12:06:05.899Z,8.35
2023-02-13T12:08:36.151Z,8.75
2023-02-13T12:11:23.587Z,9.65
2023-02-13T12:13:53.109Z,8.77
2023-02-13T12:16:31.249Z,7.82
2023-02-13T12:19:04.612Z,8.60
2023-02-13T12:21:46.763Z,9.27
2023-02-13T12:24:31.476Z,7.80
2023-02-13T12:27:13.610Z,7.95
2023-02-13T12:30:01.713Z,7.75
2023-02-13T12:32:42.285Z,10.65
2023-02-13T12:35:32.616Z,9.23
2023-02-13T12:38:08.331Z,7.72
2023-02-13T12:40:54.133Z,8.60
2023-02-13T12:43:48.084Z,9.15
2023-02-13T12:46:23.133Z,8.23
2023-02-13T12:49:00.769Z,8.20
2023-02-13T12:51:44.882Z,7.53
2023-02-13T12:54:40.101Z,7.03
2023-02-13T12:57:23.224Z,8.30
2023-02-13T13:00:16.772Z,8.35
2023-02-13T13:06:08.915Z,7.70
2023-02-13T13:08:52.360Z,7.80
2023-02-13T13:11:39.442Z,7.53
2023-02-13T13:14:16.136Z,7.90
2023-02-13T13:16:54.037Z,7.32
2023-02-13T13:19:31.631Z,7.45
2023-02-13T13:22:03.663Z,7.20
2023-02-13T13:24:44.096Z,7.72
2023-02-13T13:27:20.522Z,6.75
2023-02-13T13:29:55.538Z,7.30
2023-02-13T13:32:27.628Z,7.55
2023-02-13T13:34:57.585Z,6.85
2023-02-13T13:37:34.900Z,6.03
2023-02-13T13:40:17.612Z,7.30
2023-02-13T13:42:52.811Z,6.17
2023-02-13T13:45:34.953Z,6.28
2023-02-13T13:48:25.990Z,6.22
2023-02-13T13:50:55.352Z,7.20
2023-02-13T13:53:25.552Z,7.03
2023-02-13T13:56:08.648Z,7.60
2023-02-13T14:01:22.379Z,6.63
2023-02-13T14:06:23.464Z,6.25
2023-02-13T14:09:04.671Z,6.53
2023-02-13T14:11:41.671Z,6.35
2023-02-13T14:14:48.145Z,5.68
2023-02-13T14:17:17.940Z,6.25
2023-02-13T14:19:53.408Z,6.43
2023-02-13T14:22:33.536Z,6.82
2023-02-13T14:25:04.009Z,6.63
2023-02-13T14:27:34.404Z,5.95
2023-02-13T14:30:03.169Z,5.90
2023-02-13T14:32:33.895Z,6.82
2023-02-13T14:35:05.924Z,5.75
2023-02-13T14:37:40.203Z,6.95
2023-02-13T14:40:29.042Z,5.78
2023-02-13T14:43:00.553Z,6.45
2023-02-13T14:45:33.454Z,6.63
2023-02-13T14:48:09.025Z,6.63
2023-02-13T14:50:47.787Z,7.13
2023-02-13T14:53:22.318Z,7.18
2023-02-13T14:55:57.826Z,7.15
2023-02-13T14:58:30.917Z,5.63
2023-02-13T15:03:37.281Z,6.45
2023-02-13T15:06:15.292Z,6.45
2023-02-13T15:08:49.773Z,6.88
2023-02-13T15:11:37.934Z,6.13
2023-02-13T15:14:31.372Z,7.15
2023-02-13T15:17:05.729Z,5.60
2023-02-13T15:19:36.988Z,6.93
2023-02-13T15:22:08.240Z,5.65
2023-02-13T15:24:47.097Z,6.82
2023-02-13T15:27:20.761Z,7.45
2023-02-13T15:30:01.573Z,6.18
2023-02-13T15:32:33.364Z,7.15
2023-02-13T15:35:01.974Z,6.72
2023-02-13T15:37:32.367Z,6.80
2023-02-13T15:40:24.025Z,7.15
2023-02-13T15:42:53.220Z,6.50
2023-02-13T15:45:23.656Z,6.68
2023-02-13T15:47:53.851Z,6.68
2023-02-13T15:50:29.398Z,5.68
2023-02-13T15:53:01.091Z,6.75
2023-02-13T15:55:33.141Z,6.55
2023-02-13T15:58:03.064Z,6.53
2023-02-13T16:00:33.910Z,6.22
2023-02-13T16:03:05.305Z,5.20
2023-02-13T16:05:41.356Z,6.50
2023-02-13T16:08:30.093Z,6.45
2023-02-13T16:11:26.626Z,6.30
2023-02-13T16:14:03.141Z,6.43
2023-02-13T16:16:37.857Z,7.47
2023-02-13T16:19:06.284Z,6.57
2023-02-13T16:21:35.994Z,7.53
2023-02-13T16:24:08.660Z,6.75
2023-02-13T16:26:39.305Z,6.72
2023-02-13T16:29:11.881Z,7.03
2023-02-13T16:31:41.252Z,5.80
2023-02-13T16:34:24.514Z,7.22
2023-02-13T16:36:53.750Z,5.35
2023-02-13T16:39:28.937Z,6.20
2023-02-13T16:41:58.299Z,7.18
2023-02-13T16:44:28.852Z,6.53
2023-02-13T16:47:02.245Z,5.78
2023-02-13T16:49:35.986Z,7.10
2023-02-13T16:52:13.240Z,5.80
2023-02-13T16:54:53.664Z,5.85
2023-02-13T16:57:26.630Z,5.68
2023-02-13T17:00:02.366Z,5.40
2023-02-13T17:02:34.394Z,5.63
2023-02-13T17:05:18.229Z,5.85
2023-02-13T17:07:48.428Z,5.35
2023-02-13T17:10:23.229Z,6.68
2023-02-13T17:12:52.427Z,5.07
2023-02-13T17:15:22.974Z,5.47
2023-02-13T17:17:52.292Z,5.65
2023-02-13T17:20:23.264Z,5.40
2023-02-13T17:22:52.706Z,5.38
2023-02-13T17:25:24.234Z,5.65
2023-02-13T17:27:54.125Z,4.63
2023-02-13T17:30:24.764Z,5.82
2023-02-13T17:32:58.179Z,5.95
2023-02-13T17:35:26.946Z,5.40
2023-02-13T17:37:55.651Z,5.35
2023-02-13T17:40:29.664Z,4.90
2023-02-13T17:42:59.689Z,5.57
2023-02-13T17:45:29.983Z,5.13
2023-02-13T17:47:59.011Z,5.25
2023-02-13T17:50:28.975Z,5.13
2023-02-13T17:52:58.491Z,6.05
2023-02-13T17:55:29.936Z,6.20
2023-02-13T17:57:59.888Z,5.55
2023-02-13T18:00:30.616Z,5.00
2023-02-13T18:03:01.294Z,5.55
2023-02-13T18:05:31.371Z,5.75
2023-02-13T18:08:02.081Z,4.90
2023-02-13T18:10:36.275Z,6.85
2023-02-13T18:13:05.208Z,4.88
2023-02-13T18:15:36.967Z,5.00
2023-02-13T18:18:06.005Z,5.82
2023-02-13T18:20:34.888Z,4.90
2023-02-13T18:23:03.082Z,6.35
2023-02-13T18:25:32.917Z,5.93
2023-02-13T18:28:01.366Z,5.35
2023-02-13T18:30:30.274Z,5.53
2023-02-13T18:33:00.197Z,5.95
2023-02-13T18:35:29.911Z,5.20
2023-02-13T18:37:58.311Z,5.55
2023-02-13T18:40:26.472Z,5.30
2023-02-13T18:42:56.432Z,5.65
2023-02-13T18:45:24.852Z,5.85
2023-02-13T18:47:53.366Z,5.55
2023-02-13T18:50:22.277Z,5.95
2023-02-13T18:52:50.834Z,5.88
2023-02-13T18:55:19.528Z,5.03
2023-02-13T18:57:48.083Z,4.80
2023-02-13T19:00:19.989Z,7.05
2023-02-13T19:02:48.141Z,6.22
2023-02-13T19:05:17.147Z,6.68
2023-02-13T19:07:45.838Z,6.32
2023-02-13T19:10:15.649Z,5.47
2023-02-13T19:12:44.031Z,6.05
2023-02-13T19:15:12.816Z,5.80
2023-02-13T19:17:42.718Z,6.32
2023-02-13T19:20:12.380Z,6.13
2023-02-13T19:22:42.031Z,6.18
2023-02-13T19:25:10.221Z,6.72
2023-02-13T19:27:39.117Z,5.70
2023-02-13T19:30:09.625Z,6.68
2023-02-13T19:32:38.462Z,6.65
2023-02-13T19:35:09.259Z,6.63
2023-02-13T19:37:43.886Z,5.97
2023-02-13T19:40:13.834Z,5.28
2023-02-13T19:42:42.556Z,5.88
2023-02-13T19:45:11.909Z,5.93
2023-02-13T19:47:40.399Z,5.78
2023-02-13T19:50:11.615Z,7.10
2023-02-13T19:52:40.083Z,6.20
2023-02-13T19:55:08.674Z,5.90
2023-02-13T19:57:37.406Z,5.45
2023-02-13T20:00:09.384Z,6.05
2023-02-13T20:02:38.441Z,7.32
2023-02-13T20:05:11.313Z,6.10
2023-02-13T20:07:39.822Z,4.97
2023-02-13T20:10:10.775Z,5.85
2023-02-13T20:12:39.676Z,7.10
2023-02-13T20:15:08.865Z,5.88
2023-02-13T20:17:38.766Z,5.30
2023-02-13T20:20:16.354Z,5.95
2023-02-13T20:22:47.056Z,6.05
2023-02-13T20:25:18.623Z,5.78
2023-02-13T20:27:47.148Z,6.03
2023-02-13T20:30:17.866Z,6.30
2023-02-13T20:32:46.378Z,6.15
2023-02-13T20:35:16.345Z,6.25
2023-02-13T20:37:46.033Z,5.10
2023-02-13T20:40:14.917Z,5.78
2023-02-13T20:42:43.088Z,4.97
2023-02-13T20:45:11.517Z,6.22
2023-02-13T20:47:41.801Z,6.55
2023-02-13T20:50:10.842Z,6.38
2023-02-13T20:52:41.320Z,5.95
2023-02-13T20:55:09.981Z,7.18
2023-02-13T20:57:38.447Z,6.60
2023-02-13T21:00:09.006Z,6.93
2023-02-13T21:02:37.095Z,5.90
2023-02-13T21:05:06.399Z,6.22
2023-02-13T21:07:34.807Z,6.80
2023-02-13T21:10:05.803Z,6.68
2023-02-13T21:12:34.995Z,5.70
2023-02-13T21:15:03.816Z,6.40
2023-02-13T21:17:32.381Z,6.13
2023-02-13T21:20:00.889Z,5.80
2023-02-13T21:22:32.126Z,6.03
2023-02-13T21:25:00.333Z,5.90
2023-02-13T21:27:29.852Z,5.22
2023-02-13T21:29:58.387Z,6.32
2023-02-13T21:32:26.745Z,6.75
2023-02-13T21:34:56.573Z,6.35
2023-02-13T21:37:24.719Z,6.18
2023-02-13T21:39:53.112Z,7.38
2023-02-13T21:42:21.538Z,6.15
2023-02-13T21:44:51.046Z,5.93
2023-02-13T21:47:19.217Z,6.03
2023-02-13T21:49:48.721Z,6.28
2023-02-13T21:52:18.337Z,6.00
2023-02-13T21:54:46.427Z,5.90
2023-02-13T21:57:14.662Z,6.22
2023-02-13T21:59:42.768Z,7.40
2023-02-13T22:02:12.634Z,6.03
2023-02-13T22:04:41.971Z,5.90
2023-02-13T22:07:10.168Z,6.43
2023-02-13T22:09:38.751Z,6.05
2023-02-13T22:12:07.087Z,5.80
2023-02-13T22:14:41.245Z,7.90
2023-02-13T22:17:09.424Z,8.13
2023-02-13T22:19:38.976Z,7.45
2023-02-13T22:22:07.169Z,7.47
2023-02-13T22:24:38.148Z,7.30
2023-02-13T22:27:06.288Z,7.03
2023-02-13T22:29:34.723Z,6.78
2023-02-13T22:32:03.072Z,7.22
2023-02-13T22:34:31.247Z,7.30
2023-02-13T22:37:00.767Z,7.30
2023-02-13T22:39:29.020Z,8.63
2023-02-13T22:41:57.558Z,6.18
2023-02-13T22:44:25.661Z,7.03
2023-02-13T22:46:53.741Z,11.68
2023-02-13T22:49:21.917Z,8.68
2023-02-13T22:51:51.080Z,7.72
2023-02-13T22:54:20.670Z,7.05
2023-02-13T22:56:48.741Z,8.98
2023-02-13T22:59:17.090Z,8.35
2023-02-13T23:01:45.434Z,10.43
2023-02-13T23:04:14.625Z,8.65
2023-02-13T23:06:42.765Z,6.70
2023-02-13T23:09:10.952Z,9.52
2023-02-13T23:11:58.047Z,11.35
2023-02-13T23:14:26.713Z,7.32
2023-02-13T23:17:12.001Z,7.40
2023-02-13T23:19:40.093Z,7.43
2023-02-13T23:22:08.305Z,7.95
2023-02-13T23:24:36.411Z,6.75
2023-02-13T23:27:05.952Z,8.10
2023-02-13T23:29:34.075Z,6.45
2023-02-13T23:32:02.545Z,7.82
2023-02-13T23:34:30.716Z,5.90
2023-02-13T23:36:58.839Z,8.32
2023-02-13T23:39:27.659Z,8.88
2023-02-13T23:41:56.069Z,10.82
2023-02-13T23:44:25.613Z,8.48
2023-02-13T23:46:53.760Z,7.13
2023-02-13T23:49:22.188Z,7.80
2023-02-13T23:51:50.300Z,8.35
2023-02-13T23:54:21.117Z,9.43
2023-02-13T23:56:50.975Z,6.40
2023-02-13T23:59:19.913Z,8.23
